sensor_id;sensor_type;location;lat;lon;timestamp;temperature;humidity
68764;DHT22;55754;52.038;5.566;2022-08-01T00:00:09;20.60;79.80
68764;DHT22;55754;52.038;5.566;2022-08-01T00:02:39;20.60;79.60
68764;DHT22;55754;52.038;5.566;2022-08-01T00:05:08;20.70;79.80
68764;DHT22;55754;52.038;5.566;2022-08-01T00:07:34;20.60;80.00
68764;DHT22;55754;52.038;5.566;2022-08-01T00:10:01;20.70;79.90
68764;DHT22;55754;52.038;5.566;2022-08-01T00:12:27;20.60;79.90
68764;DHT22;55754;52.038;5.566;2022-08-01T00:14:52;20.60;79.70
68764;DHT22;55754;52.038;5.566;2022-08-01T00:17:18;20.60;79.80
68764;DHT22;55754;52.038;5.566;2022-08-01T00:19:43;20.60;80.90
68764;DHT22;55754;52.038;5.566;2022-08-01T00:22:09;20.60;79.80
68764;DHT22;55754;52.038;5.566;2022-08-01T00:24:35;20.60;79.60
68764;DHT22;55754;52.038;5.566;2022-08-01T00:27:00;20.60;79.50
68764;DHT22;55754;52.038;5.566;2022-08-01T00:29:26;20.60;79.50
68764;DHT22;55754;52.038;5.566;2022-08-01T00:31:52;20.60;79.70
68764;DHT22;55754;52.038;5.566;2022-08-01T00:34:17;20.60;79.60
68764;DHT22;55754;52.038;5.566;2022-08-01T00:36:43;20.60;79.50
68764;DHT22;55754;52.038;5.566;2022-08-01T00:39:08;20.60;79.60
68764;DHT22;55754;52.038;5.566;2022-08-01T00:41:34;20.60;79.60
68764;DHT22;55754;52.038;5.566;2022-08-01T00:44:04;20.60;79.60
68764;DHT22;55754;52.038;5.566;2022-08-01T00:46:30;20.60;79.90
68764;DHT22;55754;52.038;5.566;2022-08-01T00:48:55;20.60;79.90
68764;DHT22;55754;52.038;5.566;2022-08-01T00:51:22;20.50;80.00
68764;DHT22;55754;52.038;5.566;2022-08-01T00:53:49;20.50;80.20
68764;DHT22;55754;52.038;5.566;2022-08-01T00:56:16;20.50;80.20
68764;DHT22;55754;52.038;5.566;2022-08-01T00:58:42;20.50;80.30
68764;DHT22;55754;52.038;5.566;2022-08-01T01:01:08;20.50;80.30
68764;DHT22;55754;52.038;5.566;2022-08-01T01:03:33;20.50;80.30
68764;DHT22;55754;52.038;5.566;2022-08-01T01:11:34;20.40;80.30
68764;DHT22;55754;52.038;5.566;2022-08-01T01:14:06;20.40;80.30
68764;DHT22;55754;52.038;5.566;2022-08-01T01:16:37;20.40;80.30
68764;DHT22;55754;52.038;5.566;2022-08-01T01:19:10;20.40;80.30
68764;DHT22;55754;52.038;5.566;2022-08-01T01:22:41;20.40;80.40
68764;DHT22;55754;52.038;5.566;2022-08-01T01:25:24;20.40;80.80
68764;DHT22;55754;52.038;5.566;2022-08-01T01:28:10;20.40;80.60
68764;DHT22;55754;52.038;5.566;2022-08-01T01:30:41;20.40;80.50
68764;DHT22;55754;52.038;5.566;2022-08-01T01:33:10;20.40;80.30
68764;DHT22;55754;52.038;5.566;2022-08-01T01:35:40;20.40;80.60
68764;DHT22;55754;52.038;5.566;2022-08-01T01:38:18;20.40;80.40
68764;DHT22;55754;52.038;5.566;2022-08-01T01:40:47;20.40;80.70
68764;DHT22;55754;52.038;5.566;2022-08-01T01:43:14;20.40;80.50
68764;DHT22;55754;52.038;5.566;2022-08-01T01:45:41;20.40;80.40
68764;DHT22;55754;52.038;5.566;2022-08-01T01:48:09;20.40;80.50
68764;DHT22;55754;52.038;5.566;2022-08-01T01:50:36;20.40;80.60
68764;DHT22;55754;52.038;5.566;2022-08-01T01:53:04;20.40;80.70
68764;DHT22;55754;52.038;5.566;2022-08-01T01:55:31;20.30;80.80
68764;DHT22;55754;52.038;5.566;2022-08-01T01:57:59;20.40;80.90
68764;DHT22;55754;52.038;5.566;2022-08-01T02:00:26;20.30;80.90
68764;DHT22;55754;52.038;5.566;2022-08-01T02:02:54;20.40;81.00
68764;DHT22;55754;52.038;5.566;2022-08-01T02:05:22;20.30;80.90
68764;DHT22;55754;52.038;5.566;2022-08-01T02:07:49;20.30;80.80
68764;DHT22;55754;52.038;5.566;2022-08-01T02:10:16;20.30;81.00
68764;DHT22;55754;52.038;5.566;2022-08-01T02:12:44;20.30;81.10
68764;DHT22;55754;52.038;5.566;2022-08-01T02:15:12;20.30;81.20
68764;DHT22;55754;52.038;5.566;2022-08-01T02:17:41;20.30;81.20
68764;DHT22;55754;52.038;5.566;2022-08-01T02:20:09;20.30;81.40
68764;DHT22;55754;52.038;5.566;2022-08-01T02:22:49;20.30;81.40
68764;DHT22;55754;52.038;5.566;2022-08-01T02:25:34;20.30;81.70
68764;DHT22;55754;52.038;5.566;2022-08-01T02:28:05;20.30;81.60
68764;DHT22;55754;52.038;5.566;2022-08-01T02:30:37;20.30;81.40
68764;DHT22;55754;52.038;5.566;2022-08-01T02:33:12;20.30;81.50
68764;DHT22;55754;52.038;5.566;2022-08-01T02:35:42;20.30;81.70
68764;DHT22;55754;52.038;5.566;2022-08-01T02:38:12;20.30;81.40
68764;DHT22;55754;52.038;5.566;2022-08-01T02:40:43;20.30;81.50
68764;DHT22;55754;52.038;5.566;2022-08-01T02:43:09;20.30;81.40
68764;DHT22;55754;52.038;5.566;2022-08-01T02:45:41;20.30;81.50
68764;DHT22;55754;52.038;5.566;2022-08-01T02:48:13;20.30;81.60
68764;DHT22;55754;52.038;5.566;2022-08-01T02:50:42;20.30;81.70
68764;DHT22;55754;52.038;5.566;2022-08-01T02:53:11;20.30;81.60
68764;DHT22;55754;52.038;5.566;2022-08-01T02:55:39;20.20;81.70
68764;DHT22;55754;52.038;5.566;2022-08-01T02:58:07;20.20;81.70
68764;DHT22;55754;52.038;5.566;2022-08-01T03:00:35;20.20;81.70
68764;DHT22;55754;52.038;5.566;2022-08-01T03:03:03;20.20;81.90
68764;DHT22;55754;52.038;5.566;2022-08-01T03:05:30;20.20;81.80
68764;DHT22;55754;52.038;5.566;2022-08-01T03:07:59;20.20;81.70
68764;DHT22;55754;52.038;5.566;2022-08-01T03:10:27;20.20;81.80
68764;DHT22;55754;52.038;5.566;2022-08-01T03:12:55;20.20;81.80
68764;DHT22;55754;52.038;5.566;2022-08-01T03:15:21;20.20;81.90
68764;DHT22;55754;52.038;5.566;2022-08-01T03:17:49;20.20;81.90
68764;DHT22;55754;52.038;5.566;2022-08-01T03:20:18;20.20;81.90
68764;DHT22;55754;52.038;5.566;2022-08-01T03:22:45;20.20;81.90
68764;DHT22;55754;52.038;5.566;2022-08-01T03:25:13;20.20;81.90
68764;DHT22;55754;52.038;5.566;2022-08-01T03:27:40;20.10;82.00
68764;DHT22;55754;52.038;5.566;2022-08-01T03:30:08;20.10;82.10
68764;DHT22;55754;52.038;5.566;2022-08-01T03:32:34;20.10;82.00
68764;DHT22;55754;52.038;5.566;2022-08-01T03:35:00;20.10;82.10
68764;DHT22;55754;52.038;5.566;2022-08-01T03:37:28;20.00;82.10
68764;DHT22;55754;52.038;5.566;2022-08-01T03:40:02;20.00;82.10
68764;DHT22;55754;52.038;5.566;2022-08-01T03:42:37;20.00;82.20
68764;DHT22;55754;52.038;5.566;2022-08-01T03:45:07;20.00;82.10
68764;DHT22;55754;52.038;5.566;2022-08-01T03:47:41;20.10;82.10
68764;DHT22;55754;52.038;5.566;2022-08-01T03:50:08;20.10;82.00
68764;DHT22;55754;52.038;5.566;2022-08-01T03:52:38;20.10;82.10
68764;DHT22;55754;52.038;5.566;2022-08-01T03:55:06;20.00;82.10
68764;DHT22;55754;52.038;5.566;2022-08-01T03:57:33;20.10;82.20
68764;DHT22;55754;52.038;5.566;2022-08-01T03:59:59;20.00;82.10
68764;DHT22;55754;52.038;5.566;2022-08-01T04:02:26;20.10;82.10
68764;DHT22;55754;52.038;5.566;2022-08-01T04:04:52;20.00;82.20
68764;DHT22;55754;52.038;5.566;2022-08-01T04:07:30;20.00;82.20
68764;DHT22;55754;52.038;5.566;2022-08-01T04:09:56;20.00;82.40
68764;DHT22;55754;52.038;5.566;2022-08-01T04:12:22;20.00;82.20
68764;DHT22;55754;52.038;5.566;2022-08-01T04:14:48;20.00;82.20
68764;DHT22;55754;52.038;5.566;2022-08-01T04:17:15;20.00;82.20
68764;DHT22;55754;52.038;5.566;2022-08-01T04:19:41;20.00;82.30
68764;DHT22;55754;52.038;5.566;2022-08-01T04:22:09;20.00;82.40
68764;DHT22;55754;52.038;5.566;2022-08-01T04:24:36;20.00;82.30
68764;DHT22;55754;52.038;5.566;2022-08-01T04:27:06;20.00;82.20
68764;DHT22;55754;52.038;5.566;2022-08-01T04:29:35;20.00;82.20
68764;DHT22;55754;52.038;5.566;2022-08-01T04:32:02;20.00;82.40
68764;DHT22;55754;52.038;5.566;2022-08-01T04:34:30;20.00;82.30
68764;DHT22;55754;52.038;5.566;2022-08-01T04:36:58;20.10;82.40
68764;DHT22;55754;52.038;5.566;2022-08-01T04:39:24;20.00;82.40
68764;DHT22;55754;52.038;5.566;2022-08-01T04:41:57;20.00;82.40
68764;DHT22;55754;52.038;5.566;2022-08-01T04:44:24;20.00;82.40
68764;DHT22;55754;52.038;5.566;2022-08-01T04:46:51;20.00;82.50
68764;DHT22;55754;52.038;5.566;2022-08-01T04:49:20;20.00;82.30
68764;DHT22;55754;52.038;5.566;2022-08-01T04:51:50;20.10;82.30
68764;DHT22;55754;52.038;5.566;2022-08-01T04:54:16;20.10;82.40
68764;DHT22;55754;52.038;5.566;2022-08-01T04:56:42;20.00;82.30
68764;DHT22;55754;52.038;5.566;2022-08-01T04:59:07;20.10;82.30
68764;DHT22;55754;52.038;5.566;2022-08-01T05:01:52;20.10;82.30
68764;DHT22;55754;52.038;5.566;2022-08-01T05:04:17;20.10;82.20
68764;DHT22;55754;52.038;5.566;2022-08-01T05:06:43;20.10;82.40
68764;DHT22;55754;52.038;5.566;2022-08-01T05:09:09;20.10;82.20
68764;DHT22;55754;52.038;5.566;2022-08-01T05:11:35;20.10;82.30
68764;DHT22;55754;52.038;5.566;2022-08-01T05:14:00;20.00;82.70
68764;DHT22;55754;52.038;5.566;2022-08-01T05:16:26;19.90;82.80
68764;DHT22;55754;52.038;5.566;2022-08-01T05:18:52;19.90;82.90
68764;DHT22;55754;52.038;5.566;2022-08-01T05:21:17;19.80;82.50
68764;DHT22;55754;52.038;5.566;2022-08-01T05:23:43;19.80;82.00
68764;DHT22;55754;52.038;5.566;2022-08-01T05:26:10;19.80;81.90
68764;DHT22;55754;52.038;5.566;2022-08-01T05:28:35;19.80;81.40
68764;DHT22;55754;52.038;5.566;2022-08-01T05:31:01;19.80;81.20
68764;DHT22;55754;52.038;5.566;2022-08-01T05:33:27;19.90;81.00
68764;DHT22;55754;52.038;5.566;2022-08-01T05:35:53;19.90;81.00
68764;DHT22;55754;52.038;5.566;2022-08-01T05:38:19;19.90;80.90
68764;DHT22;55754;52.038;5.566;2022-08-01T05:40:47;19.90;80.80
68764;DHT22;55754;52.038;5.566;2022-08-01T05:43:13;19.90;80.60
68764;DHT22;55754;52.038;5.566;2022-08-01T05:45:38;20.00;80.60
68764;DHT22;55754;52.038;5.566;2022-08-01T05:48:06;20.00;80.40
68764;DHT22;55754;52.038;5.566;2022-08-01T05:50:32;20.00;80.30
68764;DHT22;55754;52.038;5.566;2022-08-01T05:52:58;20.10;80.20
68764;DHT22;55754;52.038;5.566;2022-08-01T05:55:24;20.00;80.10
68764;DHT22;55754;52.038;5.566;2022-08-01T05:57:49;20.00;80.10
68764;DHT22;55754;52.038;5.566;2022-08-01T06:00:15;20.00;79.90
68764;DHT22;55754;52.038;5.566;2022-08-01T06:02:44;20.00;79.90
68764;DHT22;55754;52.038;5.566;2022-08-01T06:05:10;20.00;79.90
68764;DHT22;55754;52.038;5.566;2022-08-01T06:07:36;20.00;79.80
68764;DHT22;55754;52.038;5.566;2022-08-01T06:10:04;20.00;79.80
68764;DHT22;55754;52.038;5.566;2022-08-01T06:12:32;20.00;79.60
68764;DHT22;55754;52.038;5.566;2022-08-01T06:14:58;20.10;79.60
68764;DHT22;55754;52.038;5.566;2022-08-01T06:17:24;20.10;79.40
68764;DHT22;55754;52.038;5.566;2022-08-01T06:19:49;20.00;79.40
68764;DHT22;55754;52.038;5.566;2022-08-01T06:22:15;20.10;79.50
68764;DHT22;55754;52.038;5.566;2022-08-01T06:24:41;20.10;79.40
68764;DHT22;55754;52.038;5.566;2022-08-01T06:27:06;20.00;79.30
68764;DHT22;55754;52.038;5.566;2022-08-01T06:29:32;20.00;79.50
68764;DHT22;55754;52.038;5.566;2022-08-01T06:31:58;20.10;79.50
68764;DHT22;55754;52.038;5.566;2022-08-01T06:34:24;20.10;79.50
68764;DHT22;55754;52.038;5.566;2022-08-01T06:36:49;20.10;79.70
68764;DHT22;55754;52.038;5.566;2022-08-01T06:39:15;20.20;79.80
68764;DHT22;55754;52.038;5.566;2022-08-01T06:41:40;20.20;79.60
68764;DHT22;55754;52.038;5.566;2022-08-01T06:44:12;20.20;79.40
68764;DHT22;55754;52.038;5.566;2022-08-01T06:46:38;20.20;79.40
68764;DHT22;55754;52.038;5.566;2022-08-01T06:49:04;20.20;79.30
68764;DHT22;55754;52.038;5.566;2022-08-01T06:51:29;20.20;79.30
68764;DHT22;55754;52.038;5.566;2022-08-01T06:53:55;20.20;79.40
68764;DHT22;55754;52.038;5.566;2022-08-01T06:56:21;20.30;79.50
68764;DHT22;55754;52.038;5.566;2022-08-01T06:58:46;20.30;79.60
68764;DHT22;55754;52.038;5.566;2022-08-01T07:01:12;20.30;79.50
68764;DHT22;55754;52.038;5.566;2022-08-01T07:03:38;20.30;79.50
68764;DHT22;55754;52.038;5.566;2022-08-01T07:06:04;20.40;79.40
68764;DHT22;55754;52.038;5.566;2022-08-01T07:08:29;20.40;79.40
68764;DHT22;55754;52.038;5.566;2022-08-01T07:10:55;20.40;79.30
68764;DHT22;55754;52.038;5.566;2022-08-01T07:13:27;20.40;79.20
68764;DHT22;55754;52.038;5.566;2022-08-01T07:15:53;20.40;79.30
68764;DHT22;55754;52.038;5.566;2022-08-01T07:18:19;20.40;79.30
68764;DHT22;55754;52.038;5.566;2022-08-01T07:20:45;20.30;79.50
68764;DHT22;55754;52.038;5.566;2022-08-01T07:23:13;20.40;79.70
68764;DHT22;55754;52.038;5.566;2022-08-01T07:25:39;20.30;79.70
68764;DHT22;55754;52.038;5.566;2022-08-01T07:28:05;20.30;79.80
68764;DHT22;55754;52.038;5.566;2022-08-01T07:30:30;20.30;79.90
68764;DHT22;55754;52.038;5.566;2022-08-01T07:32:57;20.20;79.80
68764;DHT22;55754;52.038;5.566;2022-08-01T07:35:22;20.20;79.80
68764;DHT22;55754;52.038;5.566;2022-08-01T07:37:48;20.20;80.40
68764;DHT22;55754;52.038;5.566;2022-08-01T07:40:14;20.10;81.10
68764;DHT22;55754;52.038;5.566;2022-08-01T07:42:40;20.00;81.20
68764;DHT22;55754;52.038;5.566;2022-08-01T07:45:09;20.00;81.20
68764;DHT22;55754;52.038;5.566;2022-08-01T07:47:35;20.10;81.50
68764;DHT22;55754;52.038;5.566;2022-08-01T07:50:02;20.10;81.50
68764;DHT22;55754;52.038;5.566;2022-08-01T07:52:28;20.20;81.20
68764;DHT22;55754;52.038;5.566;2022-08-01T07:54:55;20.20;81.60
68764;DHT22;55754;52.038;5.566;2022-08-01T07:57:22;20.10;81.60
68764;DHT22;55754;52.038;5.566;2022-08-01T07:59:48;20.20;81.50
68764;DHT22;55754;52.038;5.566;2022-08-01T08:02:14;20.20;81.20
68764;DHT22;55754;52.038;5.566;2022-08-01T08:04:40;20.20;81.50
68764;DHT22;55754;52.038;5.566;2022-08-01T08:07:05;20.20;81.70
68764;DHT22;55754;52.038;5.566;2022-08-01T08:09:31;20.20;81.60
68764;DHT22;55754;52.038;5.566;2022-08-01T08:11:57;20.30;81.70
68764;DHT22;55754;52.038;5.566;2022-08-01T08:14:23;20.30;81.70
68764;DHT22;55754;52.038;5.566;2022-08-01T08:16:49;20.30;81.80
68764;DHT22;55754;52.038;5.566;2022-08-01T08:19:15;20.20;81.80
68764;DHT22;55754;52.038;5.566;2022-08-01T08:21:41;20.30;81.90
68764;DHT22;55754;52.038;5.566;2022-08-01T08:24:08;20.30;81.80
68764;DHT22;55754;52.038;5.566;2022-08-01T08:26:51;20.20;81.70
68764;DHT22;55754;52.038;5.566;2022-08-01T08:29:18;20.10;81.80
68764;DHT22;55754;52.038;5.566;2022-08-01T08:31:44;20.10;81.80
68764;DHT22;55754;52.038;5.566;2022-08-01T08:34:10;20.10;81.90
68764;DHT22;55754;52.038;5.566;2022-08-01T08:36:36;20.10;81.90
68764;DHT22;55754;52.038;5.566;2022-08-01T08:39:03;20.10;81.80
68764;DHT22;55754;52.038;5.566;2022-08-01T08:41:33;20.10;81.70
68764;DHT22;55754;52.038;5.566;2022-08-01T08:44:03;20.20;81.90
68764;DHT22;55754;52.038;5.566;2022-08-01T08:46:31;20.10;81.70
68764;DHT22;55754;52.038;5.566;2022-08-01T08:49:02;20.20;81.80
68764;DHT22;55754;52.038;5.566;2022-08-01T08:51:30;20.20;81.90
68764;DHT22;55754;52.038;5.566;2022-08-01T08:53:57;20.20;82.20
68764;DHT22;55754;52.038;5.566;2022-08-01T08:56:26;20.20;82.20
68764;DHT22;55754;52.038;5.566;2022-08-01T08:58:55;20.20;82.30
68764;DHT22;55754;52.038;5.566;2022-08-01T09:01:22;20.20;82.20
68764;DHT22;55754;52.038;5.566;2022-08-01T09:03:48;20.20;82.30
68764;DHT22;55754;52.038;5.566;2022-08-01T09:06:13;20.20;82.00
68764;DHT22;55754;52.038;5.566;2022-08-01T09:08:39;20.20;81.60
68764;DHT22;55754;52.038;5.566;2022-08-01T09:11:05;20.20;81.60
68764;DHT22;55754;52.038;5.566;2022-08-01T09:13:31;20.30;81.30
68764;DHT22;55754;52.038;5.566;2022-08-01T09:15:57;20.30;80.90
68764;DHT22;55754;52.038;5.566;2022-08-01T09:18:36;20.40;80.70
68764;DHT22;55754;52.038;5.566;2022-08-01T09:21:18;20.50;80.60
68764;DHT22;55754;52.038;5.566;2022-08-01T09:23:45;20.50;81.20
68764;DHT22;55754;52.038;5.566;2022-08-01T09:26:13;20.50;79.80
68764;DHT22;55754;52.038;5.566;2022-08-01T09:28:40;20.50;79.60
68764;DHT22;55754;52.038;5.566;2022-08-01T09:31:07;20.60;79.80
68764;DHT22;55754;52.038;5.566;2022-08-01T09:33:51;20.60;79.40
68764;DHT22;55754;52.038;5.566;2022-08-01T09:36:18;20.70;79.50
68764;DHT22;55754;52.038;5.566;2022-08-01T09:38:44;20.70;78.90
68764;DHT22;55754;52.038;5.566;2022-08-01T09:41:10;20.70;78.20
68764;DHT22;55754;52.038;5.566;2022-08-01T09:43:37;20.70;77.90
68764;DHT22;55754;52.038;5.566;2022-08-01T09:46:10;20.80;78.00
68764;DHT22;55754;52.038;5.566;2022-08-01T09:49:01;20.80;78.30
68764;DHT22;55754;52.038;5.566;2022-08-01T09:51:28;20.70;77.80
68764;DHT22;55754;52.038;5.566;2022-08-01T09:53:54;20.70;78.10
68764;DHT22;55754;52.038;5.566;2022-08-01T09:56:21;20.70;77.50
68764;DHT22;55754;52.038;5.566;2022-08-01T09:58:57;20.70;76.80
68764;DHT22;55754;52.038;5.566;2022-08-01T10:01:24;20.80;76.90
68764;DHT22;55754;52.038;5.566;2022-08-01T10:04:15;20.80;76.90
68764;DHT22;55754;52.038;5.566;2022-08-01T10:06:44;20.80;77.50
68764;DHT22;55754;52.038;5.566;2022-08-01T10:09:14;20.70;75.70
68764;DHT22;55754;52.038;5.566;2022-08-01T10:11:41;20.60;76.00
68764;DHT22;55754;52.038;5.566;2022-08-01T10:14:08;20.70;75.70
68764;DHT22;55754;52.038;5.566;2022-08-01T10:16:35;20.70;75.70
68764;DHT22;55754;52.038;5.566;2022-08-01T10:19:03;20.80;75.60
68764;DHT22;55754;52.038;5.566;2022-08-01T10:21:32;20.90;75.00
68764;DHT22;55754;52.038;5.566;2022-08-01T10:24:01;21.00;74.00
68764;DHT22;55754;52.038;5.566;2022-08-01T10:26:30;21.10;73.80
68764;DHT22;55754;52.038;5.566;2022-08-01T10:28:57;21.20;73.80
68764;DHT22;55754;52.038;5.566;2022-08-01T10:31:23;21.20;74.20
68764;DHT22;55754;52.038;5.566;2022-08-01T10:33:50;21.20;73.70
68764;DHT22;55754;52.038;5.566;2022-08-01T10:36:20;21.10;71.40
68764;DHT22;55754;52.038;5.566;2022-08-01T10:38:46;21.10;71.90
68764;DHT22;55754;52.038;5.566;2022-08-01T10:41:13;21.10;72.40
68764;DHT22;55754;52.038;5.566;2022-08-01T10:43:41;21.20;71.80
68764;DHT22;55754;52.038;5.566;2022-08-01T10:46:07;21.30;71.60
68764;DHT22;55754;52.038;5.566;2022-08-01T10:48:58;21.40;71.70
68764;DHT22;55754;52.038;5.566;2022-08-01T10:51:25;21.50;70.60
68764;DHT22;55754;52.038;5.566;2022-08-01T10:53:54;21.50;69.70
68764;DHT22;55754;52.038;5.566;2022-08-01T10:56:20;21.60;69.20
68764;DHT22;55754;52.038;5.566;2022-08-01T10:58:49;21.70;68.30
68764;DHT22;55754;52.038;5.566;2022-08-01T11:01:17;21.80;68.10
68764;DHT22;55754;52.038;5.566;2022-08-01T11:04:03;21.90;67.30
68764;DHT22;55754;52.038;5.566;2022-08-01T11:09:01;21.90;67.60
68764;DHT22;55754;52.038;5.566;2022-08-01T11:11:27;22.00;67.20
68764;DHT22;55754;52.038;5.566;2022-08-01T11:16:31;22.10;66.60
68764;DHT22;55754;52.038;5.566;2022-08-01T11:18:57;22.10;65.50
68764;DHT22;55754;52.038;5.566;2022-08-01T11:27:24;22.40;64.90
68764;DHT22;55754;52.038;5.566;2022-08-01T11:32:47;22.60;63.10
68764;DHT22;55754;52.038;5.566;2022-08-01T11:35:13;22.60;63.70
68764;DHT22;55754;52.038;5.566;2022-08-01T11:37:39;22.50;63.30
68764;DHT22;55754;52.038;5.566;2022-08-01T11:42:43;22.60;62.20
68764;DHT22;55754;52.038;5.566;2022-08-01T11:45:09;22.40;62.10
68764;DHT22;55754;52.038;5.566;2022-08-01T11:47:47;22.40;62.10
68764;DHT22;55754;52.038;5.566;2022-08-01T11:53:20;22.60;61.70
68764;DHT22;55754;52.038;5.566;2022-08-01T11:55:47;22.70;60.30
68764;DHT22;55754;52.038;5.566;2022-08-01T11:58:15;22.70;61.00
68764;DHT22;55754;52.038;5.566;2022-08-01T12:00:40;22.70;60.10
68764;DHT22;55754;52.038;5.566;2022-08-01T12:03:10;22.70;60.30
68764;DHT22;55754;52.038;5.566;2022-08-01T12:05:36;22.80;60.50
68764;DHT22;55754;52.038;5.566;2022-08-01T12:08:03;22.70;59.70
68764;DHT22;55754;52.038;5.566;2022-08-01T12:10:34;22.60;59.90
68764;DHT22;55754;52.038;5.566;2022-08-01T12:13:06;22.70;60.50
68764;DHT22;55754;52.038;5.566;2022-08-01T12:15:37;22.80;60.00
68764;DHT22;55754;52.038;5.566;2022-08-01T12:18:06;22.90;60.20
68764;DHT22;55754;52.038;5.566;2022-08-01T12:20:34;22.90;60.40
68764;DHT22;55754;52.038;5.566;2022-08-01T12:23:04;22.80;59.80
68764;DHT22;55754;52.038;5.566;2022-08-01T12:25:34;22.80;59.00
68764;DHT22;55754;52.038;5.566;2022-08-01T12:28:02;22.90;58.90
68764;DHT22;55754;52.038;5.566;2022-08-01T12:30:28;23.00;59.00
68764;DHT22;55754;52.038;5.566;2022-08-01T12:32:57;23.10;58.80
68764;DHT22;55754;52.038;5.566;2022-08-01T12:35:28;23.20;58.00
68764;DHT22;55754;52.038;5.566;2022-08-01T12:38:05;23.10;57.50
68764;DHT22;55754;52.038;5.566;2022-08-01T12:40:39;23.20;57.80
68764;DHT22;55754;52.038;5.566;2022-08-01T12:43:07;23.20;56.50
68764;DHT22;55754;52.038;5.566;2022-08-01T12:45:41;23.10;56.90
68764;DHT22;55754;52.038;5.566;2022-08-01T12:48:12;23.10;56.70
68764;DHT22;55754;52.038;5.566;2022-08-01T12:50:46;23.20;55.90
68764;DHT22;55754;52.038;5.566;2022-08-01T12:53:13;23.10;55.30
68764;DHT22;55754;52.038;5.566;2022-08-01T12:55:54;23.20;55.60
68764;DHT22;55754;52.038;5.566;2022-08-01T12:58:21;23.30;50.90
68764;DHT22;55754;52.038;5.566;2022-08-01T13:00:49;23.50;53.00
68764;DHT22;55754;52.038;5.566;2022-08-01T13:03:20;23.60;52.60
68764;DHT22;55754;52.038;5.566;2022-08-01T13:08:16;23.60;52.80
68764;DHT22;55754;52.038;5.566;2022-08-01T13:10:42;23.70;51.00
68764;DHT22;55754;52.038;5.566;2022-08-01T13:13:09;23.70;50.20
68764;DHT22;55754;52.038;5.566;2022-08-01T13:15:37;23.70;50.30
68764;DHT22;55754;52.038;5.566;2022-08-01T13:18:27;23.70;50.00
68764;DHT22;55754;52.038;5.566;2022-08-01T13:21:16;23.80;48.10
68764;DHT22;55754;52.038;5.566;2022-08-01T13:24:09;23.80;48.70
68764;DHT22;55754;52.038;5.566;2022-08-01T13:26:55;23.80;48.80
68764;DHT22;55754;52.038;5.566;2022-08-01T13:29:39;23.80;47.60
68764;DHT22;55754;52.038;5.566;2022-08-01T13:32:21;23.80;47.20
68764;DHT22;55754;52.038;5.566;2022-08-01T13:34:48;23.70;46.00
68764;DHT22;55754;52.038;5.566;2022-08-01T13:37:13;23.80;47.90
68764;DHT22;55754;52.038;5.566;2022-08-01T13:39:44;23.80;47.10
68764;DHT22;55754;52.038;5.566;2022-08-01T13:42:14;23.80;46.50
68764;DHT22;55754;52.038;5.566;2022-08-01T13:44:41;23.70;46.70
68764;DHT22;55754;52.038;5.566;2022-08-01T13:47:07;23.70;47.30
68764;DHT22;55754;52.038;5.566;2022-08-01T13:49:34;23.80;47.20
68764;DHT22;55754;52.038;5.566;2022-08-01T13:52:00;23.80;47.30
68764;DHT22;55754;52.038;5.566;2022-08-01T13:54:26;23.80;47.50
68764;DHT22;55754;52.038;5.566;2022-08-01T13:56:53;23.80;48.00
68764;DHT22;55754;52.038;5.566;2022-08-01T13:59:19;23.90;47.80
68764;DHT22;55754;52.038;5.566;2022-08-01T14:01:45;23.80;47.50
68764;DHT22;55754;52.038;5.566;2022-08-01T14:04:11;23.90;47.70
68764;DHT22;55754;52.038;5.566;2022-08-01T14:06:37;24.00;47.80
68764;DHT22;55754;52.038;5.566;2022-08-01T14:09:04;23.90;47.10
68764;DHT22;55754;52.038;5.566;2022-08-01T14:11:30;23.90;46.50
68764;DHT22;55754;52.038;5.566;2022-08-01T14:13:55;23.90;46.80
68764;DHT22;55754;52.038;5.566;2022-08-01T14:16:21;23.80;46.70
68764;DHT22;55754;52.038;5.566;2022-08-01T14:18:47;23.80;46.30
68764;DHT22;55754;52.038;5.566;2022-08-01T14:21:12;23.90;46.50
68764;DHT22;55754;52.038;5.566;2022-08-01T14:23:40;23.90;46.80
68764;DHT22;55754;52.038;5.566;2022-08-01T14:26:05;24.00;46.90
68764;DHT22;55754;52.038;5.566;2022-08-01T14:28:31;24.00;46.90
68764;DHT22;55754;52.038;5.566;2022-08-01T14:30:58;23.90;46.90
68764;DHT22;55754;52.038;5.566;2022-08-01T14:33:24;23.90;47.20
68764;DHT22;55754;52.038;5.566;2022-08-01T14:35:50;23.90;47.00
68764;DHT22;55754;52.038;5.566;2022-08-01T14:38:16;23.90;47.40
68764;DHT22;55754;52.038;5.566;2022-08-01T14:40:42;23.90;47.60
68764;DHT22;55754;52.038;5.566;2022-08-01T14:43:07;23.90;47.10
68764;DHT22;55754;52.038;5.566;2022-08-01T14:45:33;24.00;46.80
68764;DHT22;55754;52.038;5.566;2022-08-01T14:47:59;23.90;46.00
68764;DHT22;55754;52.038;5.566;2022-08-01T14:50:25;23.90;45.10
68764;DHT22;55754;52.038;5.566;2022-08-01T14:52:53;23.90;45.00
68764;DHT22;55754;52.038;5.566;2022-08-01T14:55:19;23.80;45.10
68764;DHT22;55754;52.038;5.566;2022-08-01T14:57:49;23.80;44.80
68764;DHT22;55754;52.038;5.566;2022-08-01T15:00:15;23.90;45.10
68764;DHT22;55754;52.038;5.566;2022-08-01T15:02:41;23.80;44.50
68764;DHT22;55754;52.038;5.566;2022-08-01T15:05:08;23.90;44.50
68764;DHT22;55754;52.038;5.566;2022-08-01T15:07:34;23.90;44.20
68764;DHT22;55754;52.038;5.566;2022-08-01T15:10:00;23.80;41.70
68764;DHT22;55754;52.038;5.566;2022-08-01T15:12:25;23.70;42.80
68764;DHT22;55754;52.038;5.566;2022-08-01T15:14:51;23.70;43.60
68764;DHT22;55754;52.038;5.566;2022-08-01T15:17:25;23.70;43.30
68764;DHT22;55754;52.038;5.566;2022-08-01T15:19:53;23.70;42.80
68764;DHT22;55754;52.038;5.566;2022-08-01T15:22:22;23.70;42.20
68764;DHT22;55754;52.038;5.566;2022-08-01T15:24:49;23.80;42.50
68764;DHT22;55754;52.038;5.566;2022-08-01T15:27:15;23.80;43.30
68764;DHT22;55754;52.038;5.566;2022-08-01T15:29:41;23.70;42.80
68764;DHT22;55754;52.038;5.566;2022-08-01T15:32:08;23.70;42.80
68764;DHT22;55754;52.038;5.566;2022-08-01T15:34:35;23.70;42.90
68764;DHT22;55754;52.038;5.566;2022-08-01T15:37:01;23.70;42.80
68764;DHT22;55754;52.038;5.566;2022-08-01T15:39:27;23.70;42.10
68764;DHT22;55754;52.038;5.566;2022-08-01T15:41:54;23.70;42.10
68764;DHT22;55754;52.038;5.566;2022-08-01T15:44:19;23.70;41.90
68764;DHT22;55754;52.038;5.566;2022-08-01T15:46:50;23.80;42.30
68764;DHT22;55754;52.038;5.566;2022-08-01T15:49:16;23.80;41.80
68764;DHT22;55754;52.038;5.566;2022-08-01T15:51:42;23.80;42.20
68764;DHT22;55754;52.038;5.566;2022-08-01T15:54:08;23.80;42.30
68764;DHT22;55754;52.038;5.566;2022-08-01T15:56:35;23.80;41.00
68764;DHT22;55754;52.038;5.566;2022-08-01T15:59:02;23.70;41.10
68764;DHT22;55754;52.038;5.566;2022-08-01T16:01:27;23.60;40.80
68764;DHT22;55754;52.038;5.566;2022-08-01T16:03:55;23.50;41.40